Time;durP1;ratioP1;P1;durP2;ratioP2;P2;SDS_P1;SDS_P2;PMS_P1;PMS_P2;Temp;Humidity;BMP_temperature;BMP_pressure;BME280_temperature;BME280_humidity;BME280_pressure;Samples;Min_cycle;Max_cycle;Signal;HPM_P1;HPM_P2
2021/04/03 00:01:59;;;;;;;8.10;4.20;;;;;;;;;;5131106;27;20033;-54
2021/04/03 00:04:24;;;;;;;6.00;3.57;;;;;;;;;;5118505;27;20019;-55
2021/04/03 00:06:49;;;;;;;6.13;3.00;;;;;;;;;;5134602;27;20435;-56
2021/04/03 00:09:15;;;;;;;5.33;3.07;;;;;;;;;;5116900;27;20535;-51
2021/04/03 00:11:40;;;;;;;6.20;4.73;;;;;;;;;;5124951;27;20015;-50
2021/04/03 00:14:05;;;;;;;7.23;3.60;;;;;;;;;;5118395;27;20019;-55
2021/04/03 00:16:30;;;;;;;3.97;2.17;;;;;;;;;;5130858;27;20015;-54
2021/04/03 00:18:55;;;;;;;15.77;6.67;;;;;;;;;;5120186;27;20035;-55
2021/04/03 00:21:21;;;;;;;3.70;1.90;;;;;;;;;;5125766;27;20015;-53
2021/04/03 00:23:46;;;;;;;5.00;2.73;;;;;;;;;;5116101;27;20028;-55
2021/04/03 00:26:13;;;;;;;8.33;2.43;;;;;;;;;;5124051;27;20027;-55
2021/04/03 00:28:38;;;;;;;9.60;3.97;;;;;;;;;;5122383;27;20052;-50
2021/04/03 00:31:03;;;;;;;7.23;2.90;;;;;;;;;;5133463;27;20023;-51
2021/04/03 00:33:29;;;;;;;3.30;1.83;;;;;;;;;;5131146;27;20023;-52
2021/04/03 00:35:54;;;;;;;4.90;1.13;;;;;;;;;;5131809;27;20347;-54
2021/04/03 00:38:19;;;;;;;5.10;3.47;;;;;;;;;;5120934;27;20026;-55
2021/04/03 00:40:46;;;;;;;9.10;5.07;;;;;;;;;;5114595;27;20095;-55
2021/04/03 00:43:13;;;;;;;5.20;2.53;;;;;;;;;;5133502;27;20015;-55
2021/04/03 00:45:38;;;;;;;6.37;2.10;;;;;;;;;;5126152;27;20023;-52
2021/04/03 00:48:04;;;;;;;11.83;4.70;;;;;;;;;;5132839;27;20015;-54
2021/04/03 00:50:34;;;;;;;9.90;5.33;;;;;;;;;;5132130;27;20051;-53
2021/04/03 00:52:59;;;;;;;11.60;4.90;;;;;;;;;;5113814;28;20027;-55
2021/04/03 00:55:24;;;;;;;3.77;1.60;;;;;;;;;;5110364;27;20022;-54
2021/04/03 00:57:50;;;;;;;14.47;5.57;;;;;;;;;;5127375;27;20015;-53
2021/04/03 01:00:16;;;;;;;4.20;2.07;;;;;;;;;;5133050;27;20011;-55
2021/04/03 01:02:41;;;;;;;6.10;3.83;;;;;;;;;;5115533;27;20024;-54
2021/04/03 01:05:09;;;;;;;7.27;4.47;;;;;;;;;;5120131;27;20023;-55
2021/04/03 01:07:35;;;;;;;5.40;3.13;;;;;;;;;;5122392;27;20026;-56
2021/04/03 01:10:00;;;;;;;8.63;5.50;;;;;;;;;;5131702;27;20027;-55
2021/04/03 01:12:25;;;;;;;3.70;2.90;;;;;;;;;;5118439;27;20027;-54
2021/04/03 01:15:00;;;;;;;11.00;5.17;;;;;;;;;;5123434;27;20019;-53
2021/04/03 01:17:48;;;;;;;12.53;5.40;;;;;;;;;;5131229;27;20021;-54
2021/04/03 01:20:22;;;;;;;10.10;6.40;;;;;;;;;;5107120;27;20027;-56
2021/04/03 01:23:11;;;;;;;4.18;2.55;;;;;;;;;;5126597;27;20022;-54
2021/04/03 01:25:39;;;;;;;10.30;6.07;;;;;;;;;;5035268;28;20064;-55
2021/04/03 01:28:04;;;;;;;10.70;5.57;;;;;;;;;;5034318;28;20037;-55
2021/04/03 01:30:30;;;;;;;7.87;5.50;;;;;;;;;;5030097;28;20541;-54
2021/04/03 01:33:06;;;;;;;8.63;4.67;;;;;;;;;;5033333;28;20039;-56
2021/04/03 01:35:34;;;;;;;12.67;5.83;;;;;;;;;;5035416;28;20383;-53
2021/04/03 01:38:02;;;;;;;9.47;6.10;;;;;;;;;;5042160;28;20034;-54
2021/04/03 01:40:27;;;;;;;7.73;5.33;;;;;;;;;;5029941;28;20108;-55
2021/04/03 01:42:57;;;;;;;11.67;6.97;;;;;;;;;;5039524;28;20568;-52
2021/04/03 01:45:23;;;;;;;10.33;5.93;;;;;;;;;;5042977;28;20115;-54
2021/04/03 01:47:50;;;;;;;10.73;6.80;;;;;;;;;;5039309;28;20037;-56
2021/04/03 01:50:15;;;;;;;14.83;6.50;;;;;;;;;;5038550;28;20095;-53
2021/04/03 01:52:41;;;;;;;12.10;7.37;;;;;;;;;;5039493;28;20056;-55
2021/04/03 01:55:08;;;;;;;13.57;7.43;;;;;;;;;;5040933;28;20451;-54
2021/04/03 01:57:34;;;;;;;12.20;6.33;;;;;;;;;;5033501;28;20068;-54
2021/04/03 02:00:00;;;;;;;9.00;4.20;;;;;;;;;;5041259;28;20065;-54
2021/04/03 02:02:25;;;;;;;10.73;5.43;;;;;;;;;;5069243;28;20478;-56
2021/04/03 02:04:51;;;;;;;15.27;6.70;;;;;;;;;;5129212;28;20107;-55
2021/04/03 02:07:18;;;;;;;16.53;7.10;;;;;;;;;;5132500;27;20018;-55
2021/04/03 02:09:46;;;;;;;11.50;4.30;;;;;;;;;;5132125;27;20027;-55
2021/04/03 02:12:12;;;;;;;8.60;3.23;;;;;;;;;;5129738;27;20072;-52
2021/04/03 02:14:37;;;;;;;16.93;6.70;;;;;;;;;;5128873;27;20027;-53
2021/04/03 02:17:04;;;;;;;20.73;7.20;;;;;;;;;;5129247;27;20027;-53
2021/04/03 02:19:29;;;;;;;18.93;6.90;;;;;;;;;;5123740;28;20023;-54
2021/04/03 02:21:55;;;;;;;16.70;7.13;;;;;;;;;;5127717;27;20114;-55
2021/04/03 02:24:20;;;;;;;20.50;7.97;;;;;;;;;;5114375;28;20047;-54
2021/04/03 02:26:46;;;;;;;10.23;4.17;;;;;;;;;;5119926;27;20019;-55
2021/04/03 02:29:11;;;;;;;16.87;6.33;;;;;;;;;;5126716;27;20112;-56
2021/04/03 02:31:36;;;;;;;20.20;7.70;;;;;;;;;;5132502;27;20091;-56
2021/04/03 02:34:04;;;;;;;16.83;6.47;;;;;;;;;;5128127;27;20506;-56
2021/04/03 02:36:29;;;;;;;19.73;7.57;;;;;;;;;;5135594;27;20100;-55
2021/04/03 02:38:55;;;;;;;19.17;8.03;;;;;;;;;;5134681;27;20051;-55
2021/04/03 02:41:23;;;;;;;17.90;7.23;;;;;;;;;;5123978;27;20047;-51
2021/04/03 02:43:51;;;;;;;23.70;7.43;;;;;;;;;;5124779;27;20024;-56
2021/04/03 02:46:16;;;;;;;14.27;6.83;;;;;;;;;;5129216;27;20023;-56
2021/04/03 02:48:47;;;;;;;21.57;7.70;;;;;;;;;;5120653;27;20042;-52
2021/04/03 02:51:12;;;;;;;15.50;6.03;;;;;;;;;;5115920;27;20054;-54
2021/04/03 02:53:38;;;;;;;19.07;8.10;;;;;;;;;;5125938;27;20398;-56
2021/04/03 02:56:04;;;;;;;23.00;7.53;;;;;;;;;;5127385;27;20071;-54
2021/04/03 02:58:32;;;;;;;17.90;6.50;;;;;;;;;;5126182;27;20019;-57
2021/04/03 03:00:58;;;;;;;16.50;6.50;;;;;;;;;;5129495;27;20019;-55
2021/04/03 03:03:24;;;;;;;16.33;6.97;;;;;;;;;;5122243;27;20024;-55
2021/04/03 03:05:53;;;;;;;18.30;7.57;;;;;;;;;;5124437;27;20403;-54
2021/04/03 03:08:19;;;;;;;20.40;7.23;;;;;;;;;;5135674;27;20023;-55
2021/04/03 03:10:45;;;;;;;18.67;7.00;;;;;;;;;;5135978;27;20047;-54
2021/04/03 03:13:11;;;;;;;17.33;6.80;;;;;;;;;;5129380;27;20026;-53
2021/04/03 03:15:36;;;;;;;19.03;6.57;;;;;;;;;;5127105;27;20079;-52
2021/04/03 03:18:02;;;;;;;19.23;7.10;;;;;;;;;;5132015;27;20460;-54
2021/04/03 03:20:28;;;;;;;15.70;7.17;;;;;;;;;;5135221;27;20027;-56
2021/04/03 03:22:55;;;;;;;17.47;7.07;;;;;;;;;;5131868;27;20019;-54
2021/04/03 03:25:20;;;;;;;19.03;6.27;;;;;;;;;;5116870;27;20094;-54
2021/04/03 03:27:46;;;;;;;20.67;6.77;;;;;;;;;;5117303;27;20054;-56
2021/04/03 03:30:14;;;;;;;18.43;6.50;;;;;;;;;;5133162;27;20137;-56
2021/04/03 03:32:39;;;;;;;18.07;7.60;;;;;;;;;;5134365;27;20373;-55
2021/04/03 03:35:05;;;;;;;15.53;5.83;;;;;;;;;;5131142;27;20027;-56
2021/04/03 03:37:31;;;;;;;15.73;6.43;;;;;;;;;;5117454;27;20081;-56
2021/04/03 03:39:57;;;;;;;27.37;8.73;;;;;;;;;;5118316;27;20019;-55
2021/04/03 03:42:22;;;;;;;21.70;9.20;;;;;;;;;;5134008;27;20026;-55
2021/04/03 03:44:49;;;;;;;19.60;6.73;;;;;;;;;;5120107;27;20011;-55
2021/04/03 03:47:14;;;;;;;18.37;6.17;;;;;;;;;;5130659;27;20055;-54
2021/04/03 03:49:39;;;;;;;18.97;7.23;;;;;;;;;;5133562;27;20053;-53
2021/04/03 03:52:05;;;;;;;16.33;5.30;;;;;;;;;;5127083;27;20015;-55
2021/04/03 03:54:30;;;;;;;19.37;7.23;;;;;;;;;;5124447;27;20027;-54
2021/04/03 03:56:55;;;;;;;13.37;4.50;;;;;;;;;;5132908;27;20023;-54
2021/04/03 03:59:21;;;;;;;18.10;7.53;;;;;;;;;;5133829;27;20027;-55
2021/04/03 04:01:46;;;;;;;18.93;6.73;;;;;;;;;;5126867;27;20537;-53
2021/04/03 04:04:11;;;;;;;12.97;5.97;;;;;;;;;;5111841;27;20043;-54
2021/04/03 04:06:36;;;;;;;10.10;3.23;;;;;;;;;;5130554;27;20208;-55
2021/04/03 04:09:03;;;;;;;17.60;6.57;;;;;;;;;;5123206;27;20027;-55
2021/04/03 04:11:28;;;;;;;20.00;5.70;;;;;;;;;;5134538;27;20424;-53
2021/04/03 04:13:54;;;;;;;17.60;7.07;;;;;;;;;;5127662;27;20036;-56
2021/04/03 04:16:19;;;;;;;14.50;5.00;;;;;;;;;;5132055;27;20023;-56
2021/04/03 04:18:44;;;;;;;15.30;6.93;;;;;;;;;;5133963;27;20011;-54
2021/04/03 04:21:09;;;;;;;16.37;5.90;;;;;;;;;;5126945;27;20019;-54
2021/04/03 04:23:35;;;;;;;19.70;5.63;;;;;;;;;;5119572;27;20016;-56
2021/04/03 04:26:00;;;;;;;13.47;5.13;;;;;;;;;;5114488;27;20054;-54
2021/04/03 04:28:25;;;;;;;15.47;6.03;;;;;;;;;;5127291;27;20177;-56
2021/04/03 04:30:50;;;;;;;11.50;5.23;;;;;;;;;;5124656;27;20143;-55
2021/04/03 04:33:15;;;;;;;14.17;4.83;;;;;;;;;;5132891;27;20023;-57
2021/04/03 04:35:41;;;;;;;18.40;7.10;;;;;;;;;;5115700;27;20491;-57
2021/04/03 04:38:06;;;;;;;12.33;4.70;;;;;;;;;;5123886;27;20381;-56
2021/04/03 04:40:31;;;;;;;17.20;6.90;;;;;;;;;;5130760;27;20168;-55
2021/04/03 04:42:58;;;;;;;14.43;5.03;;;;;;;;;;5123654;27;20104;-56
2021/04/03 04:45:23;;;;;;;19.57;5.27;;;;;;;;;;5126021;27;20019;-56
2021/04/03 04:47:48;;;;;;;18.97;7.07;;;;;;;;;;5132662;27;20030;-53
2021/04/03 04:50:13;;;;;;;10.03;3.43;;;;;;;;;;5130933;27;20043;-56
2021/04/03 04:52:39;;;;;;;16.70;5.20;;;;;;;;;;5113844;28;20032;-52
2021/04/03 04:55:05;;;;;;;16.73;6.23;;;;;;;;;;5114820;27;20109;-54
2021/04/03 04:57:30;;;;;;;11.13;3.47;;;;;;;;;;5130131;27;20080;-56
2021/04/03 04:59:56;;;;;;;14.27;5.20;;;;;;;;;;5120789;27;20023;-56
2021/04/03 05:02:24;;;;;;;11.67;3.93;;;;;;;;;;5120815;27;20020;-52
2021/04/03 05:04:50;;;;;;;15.77;6.33;;;;;;;;;;5110601;28;20047;-56
2021/04/03 05:07:15;;;;;;;10.97;3.50;;;;;;;;;;5125077;27;20143;-56
2021/04/03 05:09:40;;;;;;;17.50;7.37;;;;;;;;;;5133928;27;20033;-56
2021/04/03 05:12:06;;;;;;;20.70;7.47;;;;;;;;;;5132511;27;20019;-54
2021/04/03 05:14:31;;;;;;;19.97;6.80;;;;;;;;;;5128525;27;20027;-52
2021/04/03 05:16:56;;;;;;;12.83;4.67;;;;;;;;;;5131373;27;20030;-55
2021/04/03 05:19:21;;;;;;;17.00;7.20;;;;;;;;;;5123172;27;20076;-54
2021/04/03 05:21:47;;;;;;;20.23;7.33;;;;;;;;;;5125048;27;20019;-55
2021/04/03 05:24:12;;;;;;;19.47;7.37;;;;;;;;;;5130976;27;20024;-54
2021/04/03 05:26:37;;;;;;;18.93;7.03;;;;;;;;;;5115431;27;20086;-55
2021/04/03 05:29:02;;;;;;;19.50;6.80;;;;;;;;;;5125227;27;20031;-52
2021/04/03 05:31:28;;;;;;;8.80;3.33;;;;;;;;;;5126456;27;20031;-53
2021/04/03 05:33:53;;;;;;;14.70;5.87;;;;;;;;;;5110157;27;20027;-55
2021/04/03 05:36:18;;;;;;;15.00;5.17;;;;;;;;;;5113123;28;20020;-55
2021/04/03 05:38:43;;;;;;;15.37;6.80;;;;;;;;;;5126642;27;20408;-55
2021/04/03 05:41:09;;;;;;;12.97;4.73;;;;;;;;;;5124658;27;20020;-55
2021/04/03 05:43:34;;;;;;;14.40;6.77;;;;;;;;;;5113576;27;20011;-55
2021/04/03 05:45:59;;;;;;;15.67;5.43;;;;;;;;;;5116535;28;20023;-55
2021/04/03 05:48:25;;;;;;;18.03;6.97;;;;;;;;;;5112916;28;20020;-57
2021/04/03 05:50:52;;;;;;;16.93;6.50;;;;;;;;;;5120642;28;20036;-56
2021/04/03 05:53:18;;;;;;;11.87;3.97;;;;;;;;;;5111424;28;20098;-56
2021/04/03 05:55:43;;;;;;;16.53;6.67;;;;;;;;;;5113703;28;20107;-55
2021/04/03 05:58:08;;;;;;;18.13;7.00;;;;;;;;;;5124616;28;20024;-56
2021/04/03 06:00:33;;;;;;;12.37;4.67;;;;;;;;;;5128499;28;20015;-53
2021/04/03 06:02:59;;;;;;;16.43;6.23;;;;;;;;;;5131603;28;20027;-56
2021/04/03 06:05:24;;;;;;;17.07;5.90;;;;;;;;;;5118957;28;20080;-57
2021/04/03 06:07:49;;;;;;;18.90;7.07;;;;;;;;;;5121868;27;20023;-56
2021/04/03 06:10:15;;;;;;;17.93;6.27;;;;;;;;;;5131122;27;20027;-57
2021/04/03 06:12:44;;;;;;;19.70;6.57;;;;;;;;;;5120607;27;20462;-57
2021/04/03 06:15:13;;;;;;;17.73;6.30;;;;;;;;;;5127622;27;20141;-56
2021/04/03 06:17:39;;;;;;;14.03;6.17;;;;;;;;;;5132971;27;20027;-55
2021/04/03 06:20:05;;;;;;;17.50;6.30;;;;;;;;;;5134899;27;20470;-56
2021/04/03 06:22:41;;;;;;;16.13;7.37;;;;;;;;;;5128629;27;20462;-55
2021/04/03 06:25:06;;;;;;;14.83;5.93;;;;;;;;;;5127275;27;20424;-55
2021/04/03 06:27:31;;;;;;;21.47;9.17;;;;;;;;;;5129144;27;20037;-54
2021/04/03 06:29:57;;;;;;;15.73;6.47;;;;;;;;;;5119065;27;20106;-56
2021/04/03 06:32:24;;;;;;;15.10;6.03;;;;;;;;;;5116498;27;20106;-56
2021/04/03 06:34:50;;;;;;;13.87;6.03;;;;;;;;;;5126444;27;20019;-57
2021/04/03 06:37:26;;;;;;;12.57;4.90;;;;;;;;;;5120283;27;20059;-55
2021/04/03 06:39:51;;;;;;;;;;;;;;;;;;5116429;28;20076;-54
2021/04/03 06:42:34;;;;;;;15.70;5.17;;;;;;;;;;5117505;27;19912;-54
2021/04/03 06:45:16;;;;;;;14.20;7.43;;;;;;;;;;5114916;27;20011;-55
2021/04/03 06:47:42;;;;;;;23.07;6.93;;;;;;;;;;5128395;27;20427;-52
2021/04/03 06:50:07;;;;;;;12.17;5.53;;;;;;;;;;5135985;27;20043;-57
2021/04/03 06:52:33;;;;;;;16.73;5.47;;;;;;;;;;5136460;27;20404;-57
2021/04/03 06:54:59;;;;;;;11.10;4.30;;;;;;;;;;5132068;27;20026;-56
2021/04/03 06:57:24;;;;;;;17.63;6.30;;;;;;;;;;5127545;27;20023;-55
2021/04/03 06:59:49;;;;;;;15.57;6.53;;;;;;;;;;5126578;27;20039;-56
2021/04/03 07:02:15;;;;;;;17.30;7.13;;;;;;;;;;5131166;27;20183;-56
2021/04/03 07:04:43;;;;;;;18.53;6.43;;;;;;;;;;5129324;27;20382;-55
2021/04/03 07:07:08;;;;;;;14.43;5.77;;;;;;;;;;5125380;27;20034;-56
2021/04/03 07:09:34;;;;;;;8.73;4.53;;;;;;;;;;5118257;27;20385;-57
2021/04/03 07:12:00;;;;;;;13.43;5.57;;;;;;;;;;5130072;27;20057;-56
2021/04/03 07:14:26;;;;;;;22.27;6.90;;;;;;;;;;5124226;27;20114;-56
2021/04/03 07:16:51;;;;;;;14.43;6.17;;;;;;;;;;5118567;27;20103;-57
2021/04/03 07:19:18;;;;;;;12.40;5.63;;;;;;;;;;5126149;27;20019;-56
2021/04/03 07:21:43;;;;;;;11.40;5.23;;;;;;;;;;5133896;27;20022;-56
2021/04/03 07:24:09;;;;;;;12.53;5.37;;;;;;;;;;5124623;27;20015;-53
2021/04/03 07:26:35;;;;;;;12.60;5.00;;;;;;;;;;5135062;27;20023;-55
2021/04/03 07:29:00;;;;;;;14.20;5.77;;;;;;;;;;5126318;27;20023;-57
2021/04/03 07:31:36;;;;;;;16.17;5.60;;;;;;;;;;5135115;27;20047;-54
2021/04/03 07:34:01;;;;;;;13.07;4.50;;;;;;;;;;5125159;27;20023;-56
2021/04/03 07:36:36;;;;;;;6.83;2.77;;;;;;;;;;5120164;27;20367;-56
2021/04/03 07:39:03;;;;;;;11.37;3.57;;;;;;;;;;5130631;27;20026;-54
2021/04/03 07:41:34;;;;;;;8.17;3.70;;;;;;;;;;5131655;27;20403;-55
2021/04/03 07:44:08;;;;;;;22.97;6.77;;;;;;;;;;5119027;27;20110;-54
2021/04/03 07:46:37;;;;;;;6.03;2.63;;;;;;;;;;5123932;27;20024;-56
2021/04/03 07:49:02;;;;;;;13.97;5.03;;;;;;;;;;5135525;27;20031;-51
2021/04/03 07:51:30;;;;;;;15.23;5.63;;;;;;;;;;5134143;27;20151;-56
2021/04/03 07:53:57;;;;;;;18.33;6.27;;;;;;;;;;5120175;27;20054;-56
2021/04/03 07:56:23;;;;;;;15.93;6.33;;;;;;;;;;5128769;27;20115;-55
2021/04/03 07:58:55;;;;;;;19.40;6.43;;;;;;;;;;5124923;27;20099;-58
2021/04/03 08:01:28;;;;;;;16.93;5.53;;;;;;;;;;5132200;27;20094;-55
2021/04/03 08:03:54;;;;;;;17.03;5.77;;;;;;;;;;5131698;27;20011;-55
2021/04/03 08:06:27;;;;;;;20.10;8.00;;;;;;;;;;5130921;27;20381;-55
2021/04/03 08:08:52;;;;;;;13.57;5.70;;;;;;;;;;5132546;27;20114;-52
2021/04/03 08:11:18;;;;;;;13.77;5.37;;;;;;;;;;5128183;27;20102;-55
2021/04/03 08:13:44;;;;;;;15.43;4.90;;;;;;;;;;5120551;27;20020;-55
2021/04/03 08:16:10;;;;;;;11.33;4.17;;;;;;;;;;5127106;27;20470;-54
2021/04/03 08:18:37;;;;;;;18.53;7.20;;;;;;;;;;5129587;27;20011;-55
2021/04/03 08:21:03;;;;;;;14.03;5.57;;;;;;;;;;5134537;27;20030;-54
2021/04/03 08:23:29;;;;;;;15.37;5.70;;;;;;;;;;5131764;27;20509;-55
2021/04/03 08:25:55;;;;;;;16.43;6.40;;;;;;;;;;5127645;27;20011;-56
2021/04/03 08:28:21;;;;;;;17.57;7.00;;;;;;;;;;5124747;27;20045;-56
2021/04/03 08:30:46;;;;;;;29.70;13.50;;;;;;;;;;5133575;27;20023;-53
2021/04/03 08:33:12;;;;;;;20.13;7.17;;;;;;;;;;5121257;27;20019;-56
2021/04/03 08:35:39;;;;;;;18.17;6.87;;;;;;;;;;5121773;27;20027;-55
2021/04/03 08:38:05;;;;;;;12.77;4.80;;;;;;;;;;5129320;27;20547;-55
2021/04/03 08:40:31;;;;;;;20.23;5.77;;;;;;;;;;5113806;27;20066;-54
2021/04/03 08:42:56;;;;;;;20.03;8.67;;;;;;;;;;5113906;27;20209;-53
2021/04/03 08:45:21;;;;;;;18.40;6.87;;;;;;;;;;5130172;27;20027;-55
2021/04/03 08:47:49;;;;;;;20.93;6.50;;;;;;;;;;5117100;27;20027;-55
2021/04/03 08:50:14;;;;;;;20.57;7.07;;;;;;;;;;5119383;27;20575;-53
2021/04/03 08:52:40;;;;;;;19.30;7.37;;;;;;;;;;5116687;27;20019;-57
2021/04/03 08:55:05;;;;;;;17.43;4.20;;;;;;;;;;5119236;27;20027;-53
2021/04/03 08:57:30;;;;;;;20.40;7.30;;;;;;;;;;5113521;28;20023;-55
2021/04/03 08:59:56;;;;;;;15.00;5.83;;;;;;;;;;5117024;27;20019;-52
2021/04/03 09:02:22;;;;;;;54.37;8.87;;;;;;;;;;5134256;27;20019;-55
2021/04/03 09:04:47;;;;;;;28.23;13.43;;;;;;;;;;5127978;27;20015;-55
2021/04/03 09:07:12;;;;;;;23.83;11.00;;;;;;;;;;5133478;27;20423;-54
2021/04/03 09:09:40;;;;;;;20.83;9.70;;;;;;;;;;5126290;27;20093;-55
2021/04/03 09:12:06;;;;;;;20.33;10.47;;;;;;;;;;5129607;27;20019;-55
2021/04/03 09:14:32;;;;;;;25.00;11.73;;;;;;;;;;5120872;27;20046;-54
2021/04/03 09:16:58;;;;;;;19.47;10.27;;;;;;;;;;5134104;27;20114;-52
2021/04/03 09:19:27;;;;;;;26.40;11.70;;;;;;;;;;5125328;27;20063;-54
2021/04/03 09:21:53;;;;;;;34.37;16.90;;;;;;;;;;5133560;27;20018;-52
2021/04/03 09:24:33;;;;;;;20.70;9.47;;;;;;;;;;5120559;27;20023;-54
2021/04/03 09:27:07;;;;;;;21.30;10.43;;;;;;;;;;5133116;27;20039;-54
2021/04/03 09:29:32;;;;;;;34.10;15.40;;;;;;;;;;5133519;27;20144;-55
2021/04/03 09:32:02;;;;;;;33.47;13.83;;;;;;;;;;5133524;27;20116;-51
2021/04/03 09:34:32;;;;;;;26.50;12.57;;;;;;;;;;5123819;27;20028;-54
2021/04/03 09:37:09;;;;;;;29.07;12.57;;;;;;;;;;5125134;27;20027;-54
2021/04/03 09:39:41;;;;;;;24.20;12.43;;;;;;;;;;5113021;28;20028;-54
2021/04/03 09:42:10;;;;;;;24.97;11.53;;;;;;;;;;5112714;28;20094;-55
2021/04/03 09:44:35;;;;;;;20.10;9.60;;;;;;;;;;5114001;27;20049;-54
2021/04/03 09:47:00;;;;;;;21.97;8.23;;;;;;;;;;5127682;27;20104;-50
2021/04/03 09:49:25;;;;;;;11.50;3.53;;;;;;;;;;5112570;28;20020;-53
2021/04/03 09:51:51;;;;;;;12.93;5.95;;;;;;;;;;5113082;28;20027;-56
2021/04/03 09:54:16;;;;;;;9.88;3.42;;;;;;;;;;5126382;28;20019;-53
2021/04/03 09:56:41;;;;;;;12.70;4.93;;;;;;;;;;5125078;28;20355;-56
2021/04/03 09:59:06;;;;;;;11.52;4.80;;;;;;;;;;5113655;28;20031;-53
2021/04/03 10:01:31;;;;;;;11.82;3.95;;;;;;;;;;5112373;28;20015;-55
2021/04/03 10:03:57;;;;;;;6.68;3.75;;;;;;;;;;5123091;28;20038;-53
2021/04/03 10:06:22;;;;;;;11.40;3.28;;;;;;;;;;5130264;27;20046;-51
2021/04/03 10:08:48;;;;;;;4.07;1.50;;;;;;;;;;5132634;27;20019;-53
2021/04/03 10:11:14;;;;;;;5.43;2.20;;;;;;;;;;5124724;28;20019;-55
2021/04/03 10:13:39;;;;;;;7.60;1.98;;;;;;;;;;5127119;28;20689;-56
2021/04/03 10:16:05;;;;;;;9.10;2.90;;;;;;;;;;5132757;28;20072;-56
2021/04/03 10:18:30;;;;;;;4.40;0.98;;;;;;;;;;5121801;28;20011;-52
2021/04/03 10:20:55;;;;;;;4.22;1.98;;;;;;;;;;5131681;28;20015;-53
2021/04/03 10:23:20;;;;;;;6.43;2.30;;;;;;;;;;5130511;28;20022;-54
2021/04/03 10:25:47;;;;;;;7.50;2.15;;;;;;;;;;5125574;27;20143;-51
2021/04/03 10:28:12;;;;;;;4.57;1.70;;;;;;;;;;5112402;28;20068;-54
2021/04/03 10:30:37;;;;;;;4.65;1.80;;;;;;;;;;5119052;28;20118;-52
2021/04/03 10:33:03;;;;;;;4.70;1.48;;;;;;;;;;5129707;28;20015;-53
2021/04/03 10:35:28;;;;;;;5.63;2.03;;;;;;;;;;5121358;27;20474;-52
2021/04/03 10:37:53;;;;;;;6.18;1.83;;;;;;;;;;5133012;28;20020;-55
2021/04/03 10:40:18;;;;;;;4.75;1.70;;;;;;;;;;5131911;28;20027;-54
2021/04/03 10:42:44;;;;;;;4.15;1.65;;;;;;;;;;5118648;28;20020;-52
2021/04/03 10:45:09;;;;;;;4.38;1.27;;;;;;;;;;5124024;28;20109;-56
2021/04/03 10:47:34;;;;;;;2.45;0.57;;;;;;;;;;5123318;28;20068;-55
2021/04/03 10:49:59;;;;;;;3.83;0.90;;;;;;;;;;5132468;28;20057;-51
2021/04/03 10:52:25;;;;;;;5.10;1.25;;;;;;;;;;5131935;28;20094;-55
2021/04/03 10:54:50;;;;;;;3.78;1.33;;;;;;;;;;5129110;27;20015;-54
2021/04/03 10:57:17;;;;;;;2.35;0.80;;;;;;;;;;5123390;27;20474;-50
2021/04/03 10:59:42;;;;;;;4.57;0.80;;;;;;;;;;5113976;27;20027;-55
2021/04/03 11:02:07;;;;;;;1.35;0.47;;;;;;;;;;5129927;27;20011;-57
2021/04/03 11:04:32;;;;;;;5.28;1.05;;;;;;;;;;5132207;27;20071;-55
2021/04/03 11:06:58;;;;;;;2.83;0.75;;;;;;;;;;5135539;27;20027;-56
2021/04/03 11:09:23;;;;;;;2.90;0.52;;;;;;;;;;5131484;27;20431;-55
2021/04/03 11:11:48;;;;;;;1.42;0.30;;;;;;;;;;5130696;27;20027;-54
2021/04/03 11:14:13;;;;;;;2.15;0.80;;;;;;;;;;5131320;27;20465;-53
2021/04/03 11:16:39;;;;;;;3.90;0.50;;;;;;;;;;5135006;27;20515;-55
2021/04/03 11:19:04;;;;;;;3.03;0.63;;;;;;;;;;5125358;27;20462;-55
2021/04/03 11:21:29;;;;;;;6.60;0.57;;;;;;;;;;5122070;27;20019;-53
2021/04/03 11:23:54;;;;;;;1.65;0.40;;;;;;;;;;5125861;27;20011;-53
2021/04/03 11:26:20;;;;;;;2.92;0.40;;;;;;;;;;5129092;27;20031;-55
2021/04/03 11:28:45;;;;;;;2.22;0.50;;;;;;;;;;5129189;27;20026;-55
2021/04/03 11:31:10;;;;;;;4.72;0.70;;;;;;;;;;5128365;27;20124;-57
2021/04/03 11:33:35;;;;;;;2.50;0.43;;;;;;;;;;5125895;27;20110;-56
2021/04/03 11:36:01;;;;;;;2.33;0.60;;;;;;;;;;5128220;27;20039;-57
2021/04/03 11:38:26;;;;;;;3.25;0.55;;;;;;;;;;5128582;27;20386;-55
2021/04/03 11:40:51;;;;;;;2.75;0.60;;;;;;;;;;5127861;27;20050;-55
2021/04/03 11:43:17;;;;;;;3.35;0.57;;;;;;;;;;5126753;27;20022;-55
2021/04/03 11:45:42;;;;;;;2.38;0.50;;;;;;;;;;5127416;27;20113;-52
2021/04/03 11:48:07;;;;;;;5.47;0.70;;;;;;;;;;5128195;27;20386;-54
2021/04/03 11:50:33;;;;;;;6.38;0.60;;;;;;;;;;5128591;27;20047;-54
2021/04/03 11:52:58;;;;;;;4.90;0.63;;;;;;;;;;5134682;27;20438;-57
2021/04/03 11:55:25;;;;;;;3.47;0.60;;;;;;;;;;5130119;27;20030;-57
2021/04/03 11:57:50;;;;;;;1.33;0.35;;;;;;;;;;5128816;27;20098;-57
2021/04/03 12:00:18;;;;;;;1.70;0.50;;;;;;;;;;5115608;27;20055;-56
2021/04/03 12:02:44;;;;;;;2.63;0.43;;;;;;;;;;5127244;27;20015;-55
2021/04/03 12:05:09;;;;;;;2.38;0.52;;;;;;;;;;5124616;27;20008;-56
2021/04/03 12:07:38;;;;;;;2.13;0.30;;;;;;;;;;5117222;27;20023;-55
2021/04/03 12:10:07;;;;;;;2.55;0.38;;;;;;;;;;5130111;27;20367;-57
2021/04/03 12:12:35;;;;;;;2.53;0.38;;;;;;;;;;5135090;27;20012;-54
2021/04/03 12:15:00;;;;;;;2.40;0.20;;;;;;;;;;5126716;27;20083;-55
2021/04/03 12:17:25;;;;;;;0.38;0.20;;;;;;;;;;5131270;27;20286;-53
2021/04/03 12:19:50;;;;;;;1.80;0.20;;;;;;;;;;5129627;27;20474;-56
2021/04/03 12:22:16;;;;;;;5.35;0.30;;;;;;;;;;5115396;27;20032;-52
2021/04/03 12:24:41;;;;;;;1.60;0.32;;;;;;;;;;5117405;27;20046;-53
2021/04/03 12:27:07;;;;;;;2.42;0.40;;;;;;;;;;5132580;27;20490;-53
2021/04/03 12:29:32;;;;;;;2.00;0.40;;;;;;;;;;5115576;27;20164;-54
2021/04/03 12:31:57;;;;;;;2.55;0.28;;;;;;;;;;5115719;27;20023;-53
2021/04/03 12:34:22;;;;;;;1.55;0.30;;;;;;;;;;5111054;28;20385;-55
2021/04/03 12:36:48;;;;;;;3.10;0.45;;;;;;;;;;5113811;28;20022;-53
2021/04/03 12:39:13;;;;;;;1.00;0.32;;;;;;;;;;5113853;27;20016;-55
2021/04/03 12:41:38;;;;;;;0.85;0.30;;;;;;;;;;5113710;28;20046;-54
2021/04/03 12:44:03;;;;;;;1.75;0.30;;;;;;;;;;5128005;27;20015;-54
2021/04/03 12:46:29;;;;;;;2.00;0.40;;;;;;;;;;5123349;27;20031;-55
2021/04/03 12:48:54;;;;;;;1.80;0.40;;;;;;;;;;5120040;27;20019;-54
2021/04/03 12:51:19;;;;;;;1.20;0.40;;;;;;;;;;5121904;27;20114;-55
2021/04/03 12:53:44;;;;;;;1.13;0.20;;;;;;;;;;5123053;27;20302;-57
2021/04/03 12:56:10;;;;;;;0.35;0.20;;;;;;;;;;5113117;28;20097;-56
2021/04/03 12:58:35;;;;;;;2.90;0.30;;;;;;;;;;5113110;27;20455;-55
2021/04/03 13:01:00;;;;;;;1.20;0.30;;;;;;;;;;5129087;27;20022;-56
2021/04/03 13:03:25;;;;;;;0.95;0.40;;;;;;;;;;5130165;27;20048;-55
2021/04/03 13:05:51;;;;;;;2.83;0.30;;;;;;;;;;5128766;27;20023;-53
2021/04/03 13:08:16;;;;;;;1.85;0.60;;;;;;;;;;5132337;27;20114;-56
2021/04/03 13:10:41;;;;;;;1.40;0.40;;;;;;;;;;5127315;27;20058;-52
2021/04/03 13:13:07;;;;;;;1.85;0.45;;;;;;;;;;5113002;28;20076;-55
2021/04/03 13:15:32;;;;;;;2.17;0.50;;;;;;;;;;5116314;27;20152;-57
2021/04/03 13:17:57;;;;;;;2.05;0.30;;;;;;;;;;5128152;27;20019;-54
2021/04/03 13:20:22;;;;;;;1.25;0.40;;;;;;;;;;5131802;27;20023;-55
2021/04/03 13:22:48;;;;;;;1.70;0.50;;;;;;;;;;5133539;27;20393;-52
2021/04/03 13:25:13;;;;;;;3.47;0.55;;;;;;;;;;5130355;27;20025;-56
2021/04/03 13:27:38;;;;;;;1.48;0.40;;;;;;;;;;5125512;27;20078;-52
2021/04/03 13:30:06;;;;;;;1.45;0.40;;;;;;;;;;5116885;27;20011;-56
2021/04/03 13:32:32;;;;;;;1.65;0.30;;;;;;;;;;5112979;28;20489;-57
2021/04/03 13:34:57;;;;;;;1.90;0.82;;;;;;;;;;5125402;27;20027;-55
2021/04/03 13:37:22;;;;;;;2.08;0.50;;;;;;;;;;5128270;27;20101;-56
2021/04/03 13:39:48;;;;;;;2.20;0.50;;;;;;;;;;5128680;27;20036;-56
2021/04/03 13:42:13;;;;;;;2.35;0.98;;;;;;;;;;5130054;27;20011;-55
2021/04/03 13:44:38;;;;;;;3.17;0.50;;;;;;;;;;5124784;27;20007;-55
2021/04/03 13:47:05;;;;;;;2.35;0.40;;;;;;;;;;5128206;27;20105;-57
2021/04/03 13:49:30;;;;;;;3.28;0.50;;;;;;;;;;5123032;27;20018;-54
2021/04/03 13:51:55;;;;;;;2.25;0.30;;;;;;;;;;5133314;27;20019;-55
2021/04/03 13:54:21;;;;;;;1.60;0.50;;;;;;;;;;5128815;27;20105;-53
2021/04/03 13:56:46;;;;;;;1.15;0.45;;;;;;;;;;5132606;28;20026;-56
2021/04/03 13:59:11;;;;;;;0.85;0.20;;;;;;;;;;5124387;28;20024;-55
2021/04/03 14:01:37;;;;;;;1.80;0.30;;;;;;;;;;5112830;28;20024;-55
2021/04/03 14:04:02;;;;;;;3.25;0.70;;;;;;;;;;5109722;28;20096;-55
2021/04/03 14:06:27;;;;;;;2.92;0.80;;;;;;;;;;5115102;28;20023;-51
2021/04/03 14:08:52;;;;;;;1.38;0.22;;;;;;;;;;5133430;28;20470;-52
2021/04/03 14:11:18;;;;;;;1.40;0.50;;;;;;;;;;5126416;28;20542;-56
2021/04/03 14:13:43;;;;;;;2.47;0.30;;;;;;;;;;5109466;28;20020;-54
2021/04/03 14:16:08;;;;;;;2.90;0.30;;;;;;;;;;5113042;28;20032;-54
2021/04/03 14:18:33;;;;;;;3.00;0.38;;;;;;;;;;5122612;28;20059;-55
2021/04/03 14:20:59;;;;;;;2.67;0.50;;;;;;;;;;5127472;28;20106;-55
2021/04/03 14:23:24;;;;;;;0.82;0.28;;;;;;;;;;5130236;28;20022;-52
2021/04/03 14:25:49;;;;;;;0.55;0.20;;;;;;;;;;5131437;28;20531;-53
2021/04/03 14:28:15;;;;;;;1.00;0.25;;;;;;;;;;5131785;27;20030;-55
2021/04/03 14:30:40;;;;;;;0.70;0.30;;;;;;;;;;5134435;27;20027;-53